Time;durP1;ratioP1;P1;durP2;ratioP2;P2;SDS_P1;SDS_P2;PMS_P1;PMS_P2;Temp;Humidity;BMP_temperature;BMP_pressure;BME280_temperature;BME280_humidity;BME280_pressure;Samples;Min_cycle;Max_cycle;Signal;HPM_P1;HPM_P2
2022/05/07 00:00:56;;;;;;;6.28;5.78;;;13.00;99.90;;;;;;5064200;28;20222;-76
2022/05/07 00:03:23;;;;;;;5.03;4.63;;;13.00;99.90;;;;;;5070206;28;20190;-76
2022/05/07 00:05:51;;;;;;;5.07;4.68;;;13.00;99.90;;;;;;5068591;28;20654;-76
2022/05/07 00:08:18;;;;;;;6.18;5.68;;;13.00;99.90;;;;;;5071809;28;20194;-76
2022/05/07 00:10:45;;;;;;;5.00;4.60;;;13.00;99.90;;;;;;5066105;28;20286;-76
2022/05/07 00:13:13;;;;;;;4.68;4.38;;;13.00;99.90;;;;;;5068299;28;20206;-76
2022/05/07 00:18:01;;;;;;;5.32;4.93;;;13.00;99.90;;;;;;5070281;28;20338;-76
2022/05/07 00:18:27;;;;;;;4.65;4.35;;;13.00;99.90;;;;;;5068276;28;20214;-76
2022/05/07 00:20:55;;;;;;;5.25;4.55;;;13.00;99.90;;;;;;5066834;28;20226;-76
2022/05/07 00:23:22;;;;;;;5.22;4.82;;;12.90;99.90;;;;;;5067255;28;20202;-76
2022/05/07 00:25:49;;;;;;;4.80;4.40;;;12.90;99.90;;;;;;5069104;28;20240;-76
2022/05/07 00:28:16;;;;;;;5.15;4.75;;;12.80;99.90;;;;;;5065549;28;20597;-76
2022/05/07 00:30:43;;;;;;;4.95;4.55;;;12.80;99.90;;;;;;5069770;28;20217;-76
2022/05/07 00:33:10;;;;;;;6.18;5.72;;;12.80;99.90;;;;;;5063390;28;20581;-76
2022/05/07 00:35:37;;;;;;;6.55;5.95;;;12.80;99.90;;;;;;5074242;28;20270;-76
2022/05/07 00:38:06;;;;;;;6.35;5.85;;;12.80;99.90;;;;;;5070474;28;20206;-76
2022/05/07 00:40:33;;;;;;;6.30;5.80;;;12.80;99.90;;;;;;5062737;28;20222;-76
2022/05/07 00:43:00;;;;;;;7.75;7.05;;;12.80;99.90;;;;;;5062133;28;20202;-76
2022/05/07 00:45:27;;;;;;;7.03;6.53;;;12.70;99.90;;;;;;5061861;28;20250;-76
2022/05/07 00:47:54;;;;;;;6.70;6.20;;;12.70;99.90;;;;;;5069167;28;20198;-75
2022/05/07 00:53:07;;;;;;;7.32;6.72;;;12.70;99.90;;;;;;5066647;28;20252;-76
2022/05/07 00:55:36;;;;;;;7.53;6.93;;;12.70;99.90;;;;;;5063121;28;20278;-76
2022/05/07 00:58:03;;;;;;;7.93;7.22;;;12.70;99.90;;;;;;5066585;28;20205;-76
2022/05/07 01:00:30;;;;;;;8.65;7.90;;;12.60;99.90;;;;;;5062873;28;20722;-75
2022/05/07 01:02:58;;;;;;;8.02;7.30;;;12.60;99.90;;;;;;5066617;28;20206;-76
2022/05/07 01:05:25;;;;;;;7.22;6.63;;;12.60;99.90;;;;;;5064475;28;20222;-76
2022/05/07 01:07:53;;;;;;;6.85;6.15;;;12.60;99.90;;;;;;5063518;28;20199;-76
2022/05/07 01:10:22;;;;;;;7.55;6.85;;;12.60;99.90;;;;;;5063525;28;20644;-76
2022/05/07 01:12:49;;;;;;;8.32;7.63;;;12.50;99.90;;;;;;5064024;28;20216;-76
2022/05/07 01:15:16;;;;;;;7.57;6.97;;;12.50;99.90;;;;;;5062942;28;20764;-75
2022/05/07 01:17:43;;;;;;;7.20;6.60;;;12.50;99.90;;;;;;5062820;28;20275;-76
2022/05/07 01:20:12;;;;;;;7.93;7.22;;;12.50;99.90;;;;;;5067147;28;20275;-76
2022/05/07 01:22:42;;;;;;;7.00;6.45;;;12.50;99.90;;;;;;5061010;28;20313;-76
2022/05/07 01:25:09;;;;;;;6.10;5.60;;;12.60;99.90;;;;;;5073952;28;20291;-76
2022/05/07 01:27:36;;;;;;;6.50;6.00;;;12.60;99.90;;;;;;5061532;28;20199;-76
2022/05/07 01:30:03;;;;;;;7.10;6.50;;;12.60;99.90;;;;;;5068301;28;20645;-75
2022/05/07 01:32:30;;;;;;;9.50;8.50;;;12.60;99.90;;;;;;5066851;28;20248;-76
2022/05/07 01:34:57;;;;;;;8.23;7.60;;;12.60;99.90;;;;;;5061462;28;20221;-75
2022/05/07 01:37:25;;;;;;;8.65;7.95;;;12.60;99.90;;;;;;5068514;28;20197;-75
2022/05/07 01:39:54;;;;;;;8.45;7.75;;;12.50;99.90;;;;;;5069587;28;20218;-76
2022/05/07 01:42:21;;;;;;;7.38;6.78;;;12.50;99.90;;;;;;5077371;28;20218;-76
2022/05/07 01:44:48;;;;;;;7.38;6.80;;;12.50;99.90;;;;;;5068599;28;20218;-76
2022/05/07 01:49:59;;;;;;;6.95;6.43;;;12.40;99.90;;;;;;5061204;28;20291;-76
2022/05/07 01:52:26;;;;;;;6.43;5.85;;;12.40;99.90;;;;;;5064156;28;20214;-76
2022/05/07 01:54:54;;;;;;;6.22;5.78;;;12.40;99.90;;;;;;5066610;28;20218;-76
2022/05/07 01:57:21;;;;;;;6.35;5.85;;;12.40;99.90;;;;;;5067866;28;20264;-76
2022/05/07 01:59:48;;;;;;;5.78;5.28;;;12.40;99.90;;;;;;5071075;28;20649;-76
2022/05/07 02:02:15;;;;;;;4.93;4.53;;;12.50;99.90;;;;;;5069713;28;20218;-76
2022/05/07 02:04:42;;;;;;;5.50;5.10;;;12.50;99.90;;;;;;5067707;28;20628;-76
2022/05/07 02:07:09;;;;;;;5.43;4.95;;;12.50;99.90;;;;;;5076876;28;20251;-75
2022/05/07 02:09:36;;;;;;;5.15;4.75;;;12.50;99.90;;;;;;5068596;28;20295;-76
2022/05/07 02:12:06;;;;;;;5.00;4.60;;;12.50;99.90;;;;;;5069488;28;20702;-76
2022/05/07 02:14:33;;;;;;;5.32;4.93;;;12.50;99.90;;;;;;5069877;28;20316;-76
2022/05/07 02:17:00;;;;;;;6.32;5.82;;;12.60;99.90;;;;;;5069203;28;20290;-76
2022/05/07 02:19:27;;;;;;;6.03;5.53;;;12.60;99.90;;;;;;5071512;28;20250;-76
2022/05/07 02:21:54;;;;;;;6.55;6.03;;;12.60;99.90;;;;;;5066657;28;20241;-76
2022/05/07 02:24:21;;;;;;;6.28;5.78;;;12.60;99.90;;;;;;5069470;28;20203;-76
2022/05/07 02:26:48;;;;;;;6.85;6.35;;;12.70;99.90;;;;;;5072518;28;20252;-76
2022/05/07 02:29:17;;;;;;;6.45;5.95;;;12.60;99.90;;;;;;5069599;28;20217;-75
2022/05/07 02:32:03;;;;;;;7.03;6.43;;;12.70;99.90;;;;;;5065338;28;20214;-76
2022/05/07 02:34:31;;;;;;;6.35;5.85;;;12.70;99.90;;;;;;5066213;28;20719;-75
2022/05/07 02:36:58;;;;;;;5.90;5.50;;;12.60;99.90;;;;;;5071240;28;20468;-75
2022/05/07 02:39:25;;;;;;;6.22;5.72;;;12.60;99.90;;;;;;5067064;28;20267;-76
2022/05/07 02:44:38;;;;;;;5.55;5.13;;;12.70;99.90;;;;;;5065782;28;20621;-76
2022/05/07 02:47:05;;;;;;;5.93;5.43;;;12.70;99.90;;;;;;5063212;28;20265;-76
2022/05/07 02:49:33;;;;;;;6.18;5.68;;;12.70;99.90;;;;;;5068602;28;20308;-75
2022/05/07 02:52:00;;;;;;;6.78;6.18;;;12.70;99.90;;;;;;5066648;28;20634;-77
2022/05/07 02:54:27;;;;;;;7.10;6.50;;;12.70;99.90;;;;;;5065370;28;20190;-76
2022/05/07 02:56:55;;;;;;;7.22;6.63;;;12.70;99.90;;;;;;5066022;28;20198;-76
2022/05/07 02:59:23;;;;;;;6.97;6.45;;;12.70;99.90;;;;;;5062327;28;20190;-76
2022/05/07 03:01:52;;;;;;;7.55;6.95;;;12.70;99.90;;;;;;5062799;28;20241;-76
2022/05/07 03:04:19;;;;;;;7.25;6.72;;;12.70;99.90;;;;;;5063724;28;20202;-76
2022/05/07 03:06:46;;;;;;;7.68;7.05;;;12.70;99.90;;;;;;5067915;28;20196;-75
2022/05/07 03:09:13;;;;;;;7.50;6.85;;;12.60;99.90;;;;;;5069089;28;20207;-75
2022/05/07 03:11:40;;;;;;;7.53;6.82;;;12.70;99.90;;;;;;5072322;28;20221;-76
2022/05/07 03:14:07;;;;;;;8.70;7.90;;;12.60;99.90;;;;;;5072273;28;20567;-75
2022/05/07 03:16:35;;;;;;;7.90;7.20;;;12.60;99.90;;;;;;5071220;28;20210;-76
2022/05/07 03:19:04;;;;;;;7.97;7.28;;;12.60;99.90;;;;;;5069153;28;20271;-76
2022/05/07 03:21:31;;;;;;;6.72;6.22;;;12.60;99.90;;;;;;5064721;28;20215;-76
2022/05/07 03:23:58;;;;;;;7.57;6.90;;;12.60;99.90;;;;;;5063761;28;20214;-76
2022/05/07 03:26:25;;;;;;;8.52;7.82;;;12.70;99.90;;;;;;5071034;28;20343;-76
2022/05/07 03:28:52;;;;;;;8.38;7.63;;;12.70;99.90;;;;;;5065856;28;20265;-76
2022/05/07 03:31:19;;;;;;;7.75;7.05;;;12.60;99.90;;;;;;5069348;28;20639;-76
2022/05/07 03:33:46;;;;;;;7.20;6.60;;;12.60;99.90;;;;;;5069171;28;20198;-76
2022/05/07 03:36:16;;;;;;;7.40;6.80;;;12.60;99.90;;;;;;5074660;28;20220;-75
2022/05/07 03:38:43;;;;;;;7.40;6.75;;;12.60;99.90;;;;;;5067296;28;20282;-75
2022/05/07 03:41:10;;;;;;;7.40;6.68;;;12.60;99.90;;;;;;5070569;28;20746;-76
2022/05/07 03:43:38;;;;;;;7.28;6.68;;;12.60;99.90;;;;;;5064583;28;20198;-75
2022/05/07 03:46:05;;;;;;;8.23;7.55;;;12.60;99.90;;;;;;5066130;28;20230;-76
2022/05/07 03:48:32;;;;;;;6.63;6.07;;;12.60;99.90;;;;;;5070294;28;20272;-76
2022/05/07 03:51:00;;;;;;;6.97;6.38;;;12.70;99.90;;;;;;5070369;28;20218;-76
2022/05/07 03:53:30;;;;;;;8.45;7.75;;;12.70;99.90;;;;;;5063673;28;20198;-76
2022/05/07 03:55:58;;;;;;;7.38;6.72;;;12.70;99.90;;;;;;5061577;28;20272;-76
2022/05/07 03:58:25;;;;;;;7.45;6.85;;;12.70;99.90;;;;;;5064832;28;20263;-76
2022/05/07 04:00:53;;;;;;;7.43;6.82;;;12.60;99.90;;;;;;5071070;28;20218;-76
2022/05/07 04:03:21;;;;;;;7.05;6.45;;;12.60;99.90;;;;;;5069683;28;20198;-76
2022/05/07 04:05:49;;;;;;;7.47;6.88;;;12.60;99.90;;;;;;5064874;28;21048;-76
2022/05/07 04:08:16;;;;;;;7.05;6.35;;;12.60;99.90;;;;;;5064565;28;20206;-76
2022/05/07 04:10:45;;;;;;;6.57;6.07;;;12.60;99.90;;;;;;5056492;28;20218;-76
2022/05/07 04:13:13;;;;;;;6.57;6.07;;;12.60;99.90;;;;;;5058869;28;20297;-76
2022/05/07 04:15:40;;;;;;;7.28;6.60;;;12.60;99.90;;;;;;5063246;28;20644;-76
2022/05/07 04:18:07;;;;;;;5.70;5.30;;;12.60;99.90;;;;;;5064444;28;20194;-77
2022/05/07 04:20:35;;;;;;;6.28;5.78;;;12.60;99.90;;;;;;5067947;28;20223;-76
2022/05/07 04:23:02;;;;;;;6.30;5.80;;;12.60;99.90;;;;;;5070836;28;20252;-76
2022/05/07 04:25:29;;;;;;;5.35;4.90;;;12.60;99.90;;;;;;5065365;28;20229;-76
2022/05/07 04:27:58;;;;;;;5.82;5.40;;;12.60;99.90;;;;;;5063316;28;20893;-77
2022/05/07 04:30:25;;;;;;;6.32;5.82;;;12.60;99.90;;;;;;5064106;28;20698;-77
2022/05/07 04:32:53;;;;;;;6.28;5.78;;;12.60;99.90;;;;;;5065896;28;20214;-76
2022/05/07 04:35:20;;;;;;;6.45;5.95;;;12.70;99.90;;;;;;5069167;28;20276;-75
2022/05/07 04:37:47;;;;;;;6.82;6.22;;;12.70;99.90;;;;;;5065718;28;20202;-76
2022/05/07 04:40:15;;;;;;;6.68;6.18;;;12.70;99.90;;;;;;5065121;28;20263;-76
2022/05/07 04:42:42;;;;;;;5.88;5.45;;;12.80;99.90;;;;;;5065303;28;20220;-76
2022/05/07 04:45:13;;;;;;;5.35;4.95;;;12.80;99.90;;;;;;5071322;28;20324;-77
2022/05/07 04:47:40;;;;;;;5.80;5.22;;;12.90;99.90;;;;;;5065244;28;20194;-76
2022/05/07 04:50:08;;;;;;;5.85;5.45;;;12.90;99.90;;;;;;5065112;28;20221;-76
2022/05/07 04:52:35;;;;;;;6.72;6.13;;;12.90;99.90;;;;;;5066469;28;20222;-76
2022/05/07 04:55:03;;;;;;;7.13;6.63;;;12.90;99.90;;;;;;5065248;28;20225;-76
2022/05/07 04:57:30;;;;;;;7.43;6.82;;;12.90;99.90;;;;;;5062684;28;20672;-77
2022/05/07 04:59:59;;;;;;;7.55;6.85;;;12.90;99.90;;;;;;5066709;28;20256;-77
2022/05/07 05:02:27;;;;;;;7.57;6.97;;;13.00;99.90;;;;;;5082743;22;20602;-79
2022/05/07 05:04:54;;;;;;;6.20;5.70;;;13.00;99.90;;;;;;5064765;28;20201;-78
2022/05/07 05:07:21;;;;;;;6.15;5.65;;;13.00;99.90;;;;;;5061632;28;20197;-79
2022/05/07 05:09:48;;;;;;;5.60;5.20;;;13.10;99.90;;;;;;5064765;28;20674;-80
2022/05/07 05:12:17;;;;;;;6.28;5.78;;;13.20;99.90;;;;;;5064533;28;20213;-80
2022/05/07 05:15:03;;;;;;;7.05;6.45;;;13.20;99.90;;;;;;5068696;28;20654;-79
2022/05/07 05:17:33;;;;;;;7.75;7.05;;;13.10;99.90;;;;;;5070112;28;20214;-80
2022/05/07 05:20:00;;;;;;;8.60;7.90;;;13.10;99.90;;;;;;5063101;28;20202;-79
2022/05/07 05:22:27;;;;;;;7.97;7.28;;;13.00;99.90;;;;;;5065618;28;20217;-82
2022/05/07 05:24:55;;;;;;;7.97;7.28;;;13.00;99.90;;;;;;5076445;28;20199;-80
2022/05/07 05:27:22;;;;;;;8.27;7.53;;;13.10;99.90;;;;;;5081485;28;20703;-81
2022/05/07 05:29:49;;;;;;;8.93;8.13;;;13.10;99.90;;;;;;5077914;28;20678;-79
2022/05/07 05:32:18;;;;;;;9.40;8.60;;;13.10;99.90;;;;;;5077746;28;20253;-80
2022/05/07 05:34:52;;;;;;;8.63;7.93;;;13.10;99.90;;;;;;5072251;28;20197;-79
2022/05/07 05:37:19;;;;;;;9.23;8.32;;;13.20;99.90;;;;;;5061349;28;20210;-78
2022/05/07 05:39:47;;;;;;;8.55;7.82;;;13.20;99.90;;;;;;5065398;28;20191;-81
2022/05/07 05:42:14;;;;;;;8.50;7.80;;;13.30;99.90;;;;;;5064804;28;20223;-81
2022/05/07 05:44:42;;;;;;;8.35;7.65;;;13.30;99.90;;;;;;5067384;28;20552;-78
2022/05/07 05:47:10;;;;;;;8.88;8.07;;;13.40;99.90;;;;;;5073585;28;20221;-80
2022/05/07 05:49:37;;;;;;;8.77;7.97;;;13.50;99.90;;;;;;5074618;28;20191;-79
2022/05/07 05:52:07;;;;;;;9.05;8.27;;;13.50;99.90;;;;;;5079471;28;20228;-78
2022/05/07 05:54:35;;;;;;;10.07;9.20;;;13.50;99.90;;;;;;5075597;28;20206;-79
2022/05/07 05:57:02;;;;;;;7.93;7.28;;;13.50;99.90;;;;;;5078333;28;20213;-79
2022/05/07 05:59:29;;;;;;;7.63;7.00;;;13.50;99.90;;;;;;5074833;28;20198;-79
2022/05/07 06:01:56;;;;;;;7.93;7.28;;;13.50;99.90;;;;;;5081019;28;20766;-80
2022/05/07 06:04:23;;;;;;;7.70;7.05;;;13.50;99.90;;;;;;5076054;28;20202;-78
2022/05/07 06:06:50;;;;;;;7.72;7.07;;;13.50;99.90;;;;;;5070998;28;20219;-80
2022/05/07 06:09:19;;;;;;;9.25;8.45;;;13.60;99.90;;;;;;5076097;28;20202;-78
2022/05/07 06:11:46;;;;;;;8.63;7.88;;;13.70;99.90;;;;;;5079744;28;20223;-78
2022/05/07 06:14:13;;;;;;;9.02;8.32;;;13.70;99.90;;;;;;5083252;28;20582;-78
2022/05/07 06:16:40;;;;;;;8.73;8.02;;;13.70;99.90;;;;;;5076980;28;20290;-79
2022/05/07 06:19:07;;;;;;;8.90;7.97;;;13.70;99.90;;;;;;5082192;28;20635;-81
2022/05/07 06:21:34;;;;;;;7.30;6.80;;;13.70;99.90;;;;;;5073007;28;20237;-79
2022/05/07 06:29:28;;;;;;;9.02;8.23;;;13.70;99.90;;;;;;5069377;28;20732;-79
2022/05/07 06:31:55;;;;;;;8.35;7.65;;;13.80;99.90;;;;;;5079645;28;20235;-79
2022/05/07 06:34:24;;;;;;;8.13;7.35;;;13.80;99.90;;;;;;5077576;28;20602;-81
2022/05/07 06:36:51;;;;;;;8.50;7.80;;;13.90;99.90;;;;;;5075136;28;20221;-77
2022/05/07 06:39:20;;;;;;;8.50;7.80;;;14.00;99.90;;;;;;5074637;28;20281;-78
2022/05/07 06:41:50;;;;;;;8.43;7.70;;;14.00;99.90;;;;;;5079405;28;20711;-76
2022/05/07 06:44:17;;;;;;;10.02;9.18;;;14.00;99.90;;;;;;5075206;28;20198;-78
2022/05/07 06:46:44;;;;;;;8.93;8.18;;;14.00;99.90;;;;;;5070932;28;20681;-78
2022/05/07 06:49:12;;;;;;;10.27;9.27;;;14.00;99.90;;;;;;5069801;28;20208;-77
2022/05/07 06:51:39;;;;;;;10.13;9.15;;;14.00;99.90;;;;;;5061663;28;20262;-78
2022/05/07 06:54:07;;;;;;;9.27;8.48;;;14.10;99.90;;;;;;5063980;28;20194;-78
2022/05/07 06:56:34;;;;;;;9.55;8.70;;;14.20;99.90;;;;;;5073504;28;20316;-80
2022/05/07 06:59:03;;;;;;;10.00;9.10;;;14.30;99.90;;;;;;5073862;28;20827;-80
2022/05/07 07:01:30;;;;;;;10.25;9.25;;;14.40;99.90;;;;;;5070225;28;20274;-80
2022/05/07 07:03:57;;;;;;;10.68;9.77;;;14.50;99.90;;;;;;5070834;28;20230;-79
2022/05/07 07:06:24;;;;;;;10.43;9.52;;;14.60;99.90;;;;;;5063167;28;20214;-79
2022/05/07 07:08:53;;;;;;;9.73;8.93;;;14.60;99.90;;;;;;5066481;28;20251;-77
2022/05/07 07:11:21;;;;;;;10.63;9.35;;;14.70;99.90;;;;;;5062433;28;20215;-79
2022/05/07 07:13:49;;;;;;;10.05;9.18;;;14.80;99.90;;;;;;5060531;28;20198;-78
2022/05/07 07:16:18;;;;;;;9.70;8.90;;;14.70;99.90;;;;;;5066493;28;20218;-79
2022/05/07 07:18:45;;;;;;;10.63;9.70;;;14.70;99.90;;;;;;5071012;28;20201;-77
2022/05/07 07:21:12;;;;;;;9.15;8.45;;;14.80;99.90;;;;;;5068612;28;20214;-78
2022/05/07 07:23:39;;;;;;;9.35;8.45;;;14.80;99.90;;;;;;5065049;28;20575;-77
2022/05/07 07:26:07;;;;;;;8.75;8.05;;;14.90;99.90;;;;;;5062206;28;20217;-76
2022/05/07 07:28:34;;;;;;;9.35;8.45;;;14.90;99.90;;;;;;5056659;28;20194;-80
2022/05/07 07:31:01;;;;;;;9.18;8.38;;;14.90;99.90;;;;;;5065517;28;20217;-81
2022/05/07 07:33:29;;;;;;;8.38;7.60;;;15.00;99.90;;;;;;5060114;28;20227;-79
2022/05/07 07:35:56;;;;;;;8.20;7.50;;;15.10;99.90;;;;;;5058702;28;20268;-77
2022/05/07 07:38:23;;;;;;;9.02;8.30;;;15.20;99.90;;;;;;5064881;28;20186;-79
2022/05/07 07:40:51;;;;;;;8.57;7.88;;;15.20;99.90;;;;;;5057425;28;20772;-78
2022/05/07 07:43:19;;;;;;;8.38;7.68;;;15.20;99.90;;;;;;5057054;28;20268;-77
2022/05/07 07:48:33;;;;;;;9.70;8.90;;;15.20;99.90;;;;;;5061189;28;20205;-79
2022/05/07 07:51:00;;;;;;;8.48;7.78;;;15.10;99.90;;;;;;5061336;28;20769;-79
2022/05/07 07:53:27;;;;;;;8.82;7.95;;;15.20;99.90;;;;;;5060136;28;20313;-81
2022/05/07 07:55:54;;;;;;;7.97;7.28;;;15.20;99.90;;;;;;5060899;28;20304;-81
2022/05/07 07:58:22;;;;;;;8.45;7.80;;;15.20;99.90;;;;;;5057678;28;20276;-80
2022/05/07 08:00:49;;;;;;;8.23;7.53;;;15.30;99.90;;;;;;5060875;28;20217;-82
2022/05/07 08:03:17;;;;;;;7.60;7.00;;;15.30;99.90;;;;;;5062118;28;20638;-81
2022/05/07 08:05:47;;;;;;;7.63;6.93;;;15.30;99.90;;;;;;5057188;28;20225;-78
2022/05/07 08:13:54;;;;;;;8.45;7.75;;;15.30;99.90;;;;;;5057566;28;20220;-81
2022/05/07 08:16:22;;;;;;;7.93;7.32;;;15.30;99.90;;;;;;5061674;28;20297;-79
2022/05/07 08:18:50;;;;;;;8.15;7.45;;;15.20;99.90;;;;;;5073807;28;21432;-79
2022/05/07 08:21:19;;;;;;;7.85;7.15;;;15.30;99.90;;;;;;5073896;28;20264;-80
2022/05/07 08:23:46;;;;;;;7.82;7.13;;;15.30;99.90;;;;;;5079970;28;20247;-81
2022/05/07 08:26:14;;;;;;;8.32;7.57;;;15.40;99.90;;;;;;5073144;28;20313;-78
2022/05/07 08:28:41;;;;;;;9.55;8.63;;;15.30;99.90;;;;;;5080606;28;20201;-80
2022/05/07 08:31:10;;;;;;;10.43;9.48;;;15.20;99.90;;;;;;5078642;28;20218;-80
2022/05/07 08:33:40;;;;;;;8.68;7.75;;;15.20;99.90;;;;;;5069032;28;20288;-79
2022/05/07 08:36:07;;;;;;;7.85;7.15;;;15.20;99.90;;;;;;5067102;28;20210;-79
2022/05/07 08:38:36;;;;;;;7.20;6.57;;;15.20;99.90;;;;;;5070318;28;20202;-79
2022/05/07 08:41:03;;;;;;;10.98;9.98;;;15.30;99.90;;;;;;5067539;28;20217;-77
2022/05/07 08:43:36;;;;;;;9.63;8.82;;;15.20;99.90;;;;;;5062737;28;20218;-80
2022/05/07 08:46:09;;;;;;;9.85;9.05;;;15.20;99.90;;;;;;5063438;28;20237;-81
2022/05/07 08:48:36;;;;;;;9.63;8.85;;;15.20;99.90;;;;;;5067955;28;20318;-78
2022/05/07 08:51:05;;;;;;;9.55;8.60;;;15.30;99.90;;;;;;5066312;28;20763;-77
2022/05/07 08:53:33;;;;;;;8.50;7.80;;;15.30;99.90;;;;;;5065005;28;20230;-76
2022/05/07 08:56:02;;;;;;;9.23;8.43;;;15.30;99.90;;;;;;5068890;28;20218;-77
2022/05/07 08:58:29;;;;;;;9.77;8.88;;;15.40;99.90;;;;;;5062111;28;20197;-78
2022/05/07 09:00:57;;;;;;;10.70;9.80;;;15.50;99.90;;;;;;5066685;28;20243;-77
2022/05/07 09:03:24;;;;;;;11.48;10.35;;;15.50;99.90;;;;;;5068884;28;20605;-77
2022/05/07 09:05:51;;;;;;;10.30;9.07;;;15.50;99.90;;;;;;5073593;28;20293;-78
2022/05/07 09:08:26;;;;;;;11.25;10.20;;;15.50;99.90;;;;;;5068840;28;20659;-79
2022/05/07 09:10:55;;;;;;;10.00;9.15;;;15.60;99.90;;;;;;5070840;28;20677;-77
2022/05/07 09:13:23;;;;;;;10.30;9.43;;;15.60;99.90;;;;;;5065680;28;20224;-79
2022/05/07 09:15:52;;;;;;;8.80;8.00;;;15.60;99.90;;;;;;5063959;28;20409;-77
2022/05/07 09:18:21;;;;;;;9.82;9.02;;;15.70;99.90;;;;;;5070353;28;20209;-76
2022/05/07 09:21:19;;;;;;;10.23;9.32;;;15.80;99.90;;;;;;5073270;28;20647;-80
2022/05/07 09:23:47;;;;;;;10.38;9.45;;;15.90;99.90;;;;;;5067475;28;20198;-78
2022/05/07 09:26:27;;;;;;;10.10;9.23;;;15.90;99.90;;;;;;5064491;28;20225;-76
2022/05/07 09:28:56;;;;;;;9.38;8.57;;;16.00;99.90;;;;;;5073130;28;20194;-77
2022/05/07 09:31:26;;;;;;;10.65;9.63;;;16.10;99.90;;;;;;5063769;28;20210;-77
2022/05/07 09:33:53;;;;;;;11.18;10.18;;;16.40;99.90;;;;;;5072055;28;20262;-81
2022/05/07 09:36:19;;;;;;;12.35;11.32;;;16.50;99.90;;;;;;5072923;28;20229;-80
2022/05/07 09:38:48;;;;;;;10.43;9.43;;;16.50;99.90;;;;;;5069256;28;20194;-79
2022/05/07 09:41:22;;;;;;;10.98;9.98;;;16.50;99.90;;;;;;5057779;28;20222;-77
2022/05/07 09:43:51;;;;;;;11.73;10.73;;;16.70;99.90;;;;;;5079358;28;20198;-81
2022/05/07 09:46:20;;;;;;;9.07;8.35;;;16.70;99.90;;;;;;5062669;28;20305;-79
2022/05/07 09:48:48;;;;;;;9.07;8.27;;;16.70;99.90;;;;;;5074082;28;20238;-78
2022/05/07 09:51:16;;;;;;;9.13;8.43;;;16.70;99.90;;;;;;5072532;28;20546;-79
2022/05/07 09:59:14;;;;;;;10.38;9.38;;;16.70;99.90;;;;;;5079516;28;20200;-81
2022/05/07 10:01:57;;;;;;;9.68;8.88;;;16.90;99.90;;;;;;5088519;28;20766;-81
2022/05/07 10:04:45;;;;;;;10.48;9.48;;;17.10;99.90;;;;;;5071938;28;20194;-79
2022/05/07 10:07:41;;;;;;;9.77;8.98;;;17.30;99.90;;;;;;5078903;28;20721;-78
2022/05/07 10:10:25;;;;;;;9.80;8.98;;;17.60;99.90;;;;;;5081509;28;20201;-81
2022/05/07 10:12:54;;;;;;;9.35;8.45;;;17.70;99.90;;;;;;5084198;28;20230;-78
2022/05/07 10:15:24;;;;;;;8.50;7.78;;;17.80;99.90;;;;;;5068022;28;20194;-79
2022/05/07 10:18:02;;;;;;;9.15;8.35;;;18.00;99.90;;;;;;5076706;28;20235;-80
2022/05/07 10:20:40;;;;;;;8.02;7.20;;;18.30;99.90;;;;;;5089788;28;20680;-79
2022/05/07 10:23:08;;;;;;;7.18;6.60;;;18.30;99.90;;;;;;5080369;28;20259;-79
2022/05/07 10:25:36;;;;;;;6.68;5.88;;;18.40;99.90;;;;;;5077797;28;20767;-81
2022/05/07 10:28:10;;;;;;;6.68;6.18;;;18.50;99.90;;;;;;5071498;28;20215;-78
2022/05/07 10:30:48;;;;;;;6.75;6.07;;;18.50;99.90;;;;;;5071643;28;20229;-79
2022/05/07 10:33:18;;;;;;;6.90;6.30;;;18.60;99.90;;;;;;5074126;28;20217;-78
2022/05/07 10:35:47;;;;;;;6.03;5.53;;;18.60;99.90;;;;;;5080584;28;20289;-80
2022/05/07 10:38:16;;;;;;;6.72;6.22;;;18.80;99.90;;;;;;5071357;28;20245;-77
2022/05/07 10:40:54;;;;;;;6.60;6.10;;;19.00;99.90;;;;;;5063085;28;20206;-79
2022/05/07 10:43:28;;;;;;;6.32;5.82;;;19.20;99.90;;;;;;5072872;28;20667;-77
2022/05/07 10:45:56;;;;;;;7.13;5.72;;;19.20;99.90;;;;;;5078899;28;20661;-78
2022/05/07 10:48:24;;;;;;;6.05;5.63;;;19.10;99.90;;;;;;5074513;28;20669;-78
2022/05/07 10:50:53;;;;;;;5.25;4.85;;;19.00;99.90;;;;;;5094224;28;20170;-78
2022/05/07 10:53:20;;;;;;;6.05;5.53;;;19.10;99.90;;;;;;5079382;28;20221;-77
2022/05/07 10:55:51;;;;;;;6.45;5.95;;;19.00;99.90;;;;;;5079751;28;20202;-78
2022/05/07 10:58:28;;;;;;;6.53;6.03;;;18.80;99.90;;;;;;5063203;28;20719;-79
2022/05/07 11:01:00;;;;;;;5.45;5.05;;;18.60;99.90;;;;;;5072600;28;20205;-81
2022/05/07 11:03:29;;;;;;;5.30;4.90;;;18.50;99.90;;;;;;5155967;22;20262;-77
2022/05/07 11:06:01;;;;;;;5.22;4.82;;;18.30;99.90;;;;;;5052109;28;20205;-78
2022/05/07 11:08:30;;;;;;;6.63;6.10;;;18.30;99.90;;;;;;5051621;28;20246;-76
2022/05/07 11:11:09;;;;;;;5.40;5.00;;;18.40;99.90;;;;;;5049183;28;20257;-76
2022/05/07 11:13:45;;;;;;;5.15;4.75;;;18.50;99.90;;;;;;5052424;28;20222;-76
2022/05/07 11:16:12;;;;;;;6.32;5.47;;;18.70;99.90;;;;;;5040055;28;20284;-77
2022/05/07 11:18:42;;;;;;;5.38;4.97;;;18.80;99.90;;;;;;5047771;28;20260;-76
2022/05/07 11:21:09;;;;;;;5.25;4.85;;;18.90;99.90;;;;;;5044317;28;20230;-77
2022/05/07 11:23:40;;;;;;;4.40;4.03;;;19.10;99.90;;;;;;5054727;28;20604;-77
2022/05/07 11:26:12;;;;;;;4.55;4.18;;;19.10;99.90;;;;;;5042952;28;20575;-76
2022/05/07 11:28:40;;;;;;;5.15;4.75;;;19.40;99.90;;;;;;5042395;28;21006;-76
2022/05/07 11:31:07;;;;;;;4.55;4.22;;;19.30;99.90;;;;;;5044926;28;20205;-76
2022/05/07 11:33:34;;;;;;;6.35;5.88;;;19.40;99.90;;;;;;5045219;28;20222;-77
2022/05/07 11:36:08;;;;;;;4.90;4.60;;;19.10;99.90;;;;;;5039439;28;20560;-76
2022/05/07 11:38:35;;;;;;;4.55;4.25;;;19.10;99.90;;;;;;5049888;28;20592;-77
2022/05/07 11:41:15;;;;;;;4.82;4.45;;;19.10;99.90;;;;;;5054204;28;20203;-77
2022/05/07 11:46:34;;;;;;;4.13;3.78;;;19.40;99.90;;;;;;5047344;28;20333;-77
2022/05/07 11:49:06;;;;;;;4.30;4.00;;;19.50;99.90;;;;;;5052213;28;20197;-77
2022/05/07 11:51:34;;;;;;;6.80;3.92;;;19.60;99.90;;;;;;5052174;28;20285;-77
2022/05/07 11:54:09;;;;;;;4.32;4.03;;;19.70;99.90;;;;;;5053070;28;20272;-78
2022/05/07 11:56:46;;;;;;;4.43;4.03;;;19.70;99.90;;;;;;5053684;28;20183;-76
2022/05/07 11:59:15;;;;;;;3.92;3.63;;;19.80;99.90;;;;;;5054931;28;20617;-77
2022/05/07 12:01:42;;;;;;;4.20;3.90;;;19.90;99.90;;;;;;5053583;28;20298;-77
2022/05/07 12:04:09;;;;;;;5.03;4.00;;;20.30;99.90;;;;;;5053353;28;20261;-76
2022/05/07 12:06:38;;;;;;;4.10;3.80;;;20.40;99.90;;;;;;5052732;28;20191;-75
2022/05/07 12:09:11;;;;;;;3.42;3.22;;;20.30;99.90;;;;;;5052901;28;20729;-77
2022/05/07 12:11:38;;;;;;;3.28;2.97;;;20.30;99.90;;;;;;5052149;28;20191;-77
2022/05/07 12:14:05;;;;;;;3.30;3.00;;;20.50;99.90;;;;;;5053335;28;20223;-77
2022/05/07 12:19:26;;;;;;;3.50;3.25;;;20.80;99.90;;;;;;5053053;28;20647;-78
2022/05/07 12:30:09;;;;;;;3.42;3.22;;;20.10;99.90;;;;;;5054035;28;20190;-77
2022/05/07 12:32:36;;;;;;;3.80;3.45;;;19.80;99.90;;;;;;5053123;28;20231;-77
2022/05/07 12:35:03;;;;;;;4.20;3.90;;;19.60;99.90;;;;;;5053605;28;20202;-77
2022/05/07 12:37:32;;;;;;;3.78;3.50;;;19.50;99.90;;;;;;5044965;28;20222;-76
2022/05/07 12:39:59;;;;;;;3.53;3.33;;;19.40;99.90;;;;;;5053815;28;20191;-77
2022/05/07 12:42:26;;;;;;;3.00;2.80;;;19.20;99.90;;;;;;5051625;28;20214;-78
2022/05/07 12:44:53;;;;;;;3.05;2.63;;;19.20;99.90;;;;;;5042248;28;20203;-76
2022/05/07 12:47:20;;;;;;;3.17;2.75;;;19.20;99.90;;;;;;5044475;28;20215;-77
2022/05/07 12:49:47;;;;;;;3.35;3.03;;;19.20;99.90;;;;;;5053039;28;20203;-78
2022/05/07 12:52:16;;;;;;;2.80;2.60;;;19.20;99.90;;;;;;5039530;28;20228;-76
2022/05/07 12:54:44;;;;;;;3.55;3.25;;;19.10;99.90;;;;;;5048553;28;20234;-78
2022/05/07 12:57:11;;;;;;;3.72;3.42;;;19.10;99.90;;;;;;5053197;28;20223;-77
2022/05/07 12:59:38;;;;;;;3.50;3.30;;;19.10;99.90;;;;;;5053785;28;20199;-76
2022/05/07 13:02:08;;;;;;;3.30;3.05;;;19.10;99.90;;;;;;5052832;28;20238;-77
2022/05/07 13:04:35;;;;;;;4.00;3.70;;;19.00;99.90;;;;;;5053029;28;20209;-77
2022/05/07 13:07:02;;;;;;;3.47;3.17;;;19.10;99.90;;;;;;5053234;28;20223;-77
2022/05/07 13:09:29;;;;;;;2.88;2.67;;;19.00;99.90;;;;;;5053534;28;20199;-77
2022/05/07 13:11:58;;;;;;;2.78;2.60;;;19.00;99.90;;;;;;5053132;28;20288;-76
2022/05/07 13:14:25;;;;;;;2.95;2.53;;;19.10;99.90;;;;;;5053453;28;20222;-77
2022/05/07 13:16:52;;;;;;;3.47;3.17;;;19.10;99.90;;;;;;5052940;28;20361;-76
2022/05/07 13:19:19;;;;;;;3.10;2.90;;;19.10;99.90;;;;;;5053218;28;20253;-76
2022/05/07 13:21:46;;;;;;;3.50;3.30;;;19.20;99.90;;;;;;5052689;28;20585;-77
2022/05/07 13:24:14;;;;;;;3.28;2.75;;;19.20;99.90;;;;;;5052933;28;20229;-76
2022/05/07 13:26:42;;;;;;;3.53;2.88;;;19.20;99.90;;;;;;5053214;28;20199;-77
2022/05/07 13:29:12;;;;;;;4.10;2.75;;;19.20;99.90;;;;;;5033580;28;20192;-77
2022/05/07 13:31:40;;;;;;;3.42;2.70;;;19.20;99.90;;;;;;5044758;28;20282;-77
2022/05/07 13:34:07;;;;;;;2.58;2.38;;;19.20;99.90;;;;;;5056817;28;20276;-77